sensor_id;sensor_type;location;lat;lon;timestamp;temperature;humidity
3053;DHT22;1536;51.098;6.414;2022-10-16T00:00:35;16.30;99.90
3053;DHT22;1536;51.098;6.414;2022-10-16T00:03:02;16.30;99.90
3053;DHT22;1536;51.098;6.414;2022-10-16T00:05:29;16.30;99.90
3053;DHT22;1536;51.098;6.414;2022-10-16T00:07:56;16.30;99.90
3053;DHT22;1536;51.098;6.414;2022-10-16T00:10:24;16.30;99.90
3053;DHT22;1536;51.098;6.414;2022-10-16T00:12:50;16.30;99.90
3053;DHT22;1536;51.098;6.414;2022-10-16T00:15:17;16.30;99.90
3053;DHT22;1536;51.098;6.414;2022-10-16T00:17:44;16.30;99.90
3053;DHT22;1536;51.098;6.414;2022-10-16T00:20:11;16.30;99.90
3053;DHT22;1536;51.098;6.414;2022-10-16T00:22:37;16.30;99.90
3053;DHT22;1536;51.098;6.414;2022-10-16T00:25:05;16.30;99.90
3053;DHT22;1536;51.098;6.414;2022-10-16T00:27:34;16.30;99.90
3053;DHT22;1536;51.098;6.414;2022-10-16T00:30:01;16.30;99.90
3053;DHT22;1536;51.098;6.414;2022-10-16T00:32:28;16.30;99.90
3053;DHT22;1536;51.098;6.414;2022-10-16T00:34:55;16.30;99.90
3053;DHT22;1536;51.098;6.414;2022-10-16T00:37:22;16.30;99.90
3053;DHT22;1536;51.098;6.414;2022-10-16T00:39:48;16.30;99.90
3053;DHT22;1536;51.098;6.414;2022-10-16T00:42:16;16.30;99.90
3053;DHT22;1536;51.098;6.414;2022-10-16T00:44:48;16.30;99.90
3053;DHT22;1536;51.098;6.414;2022-10-16T00:47:19;16.20;99.90
3053;DHT22;1536;51.098;6.414;2022-10-16T00:49:50;16.20;99.90
3053;DHT22;1536;51.098;6.414;2022-10-16T00:52:17;16.30;99.90
3053;DHT22;1536;51.098;6.414;2022-10-16T00:54:45;16.30;99.90
3053;DHT22;1536;51.098;6.414;2022-10-16T00:57:12;16.30;99.90
3053;DHT22;1536;51.098;6.414;2022-10-16T00:59:40;16.30;99.90
3053;DHT22;1536;51.098;6.414;2022-10-16T01:02:13;16.30;99.90
3053;DHT22;1536;51.098;6.414;2022-10-16T01:04:42;16.20;99.90
3053;DHT22;1536;51.098;6.414;2022-10-16T01:07:13;16.30;99.90
3053;DHT22;1536;51.098;6.414;2022-10-16T01:09:51;16.30;99.90
3053;DHT22;1536;51.098;6.414;2022-10-16T01:12:27;16.20;99.90
3053;DHT22;1536;51.098;6.414;2022-10-16T01:15:01;16.20;99.90
3053;DHT22;1536;51.098;6.414;2022-10-16T01:17:35;16.20;99.90
3053;DHT22;1536;51.098;6.414;2022-10-16T01:20:11;16.20;99.90
3053;DHT22;1536;51.098;6.414;2022-10-16T01:22:51;16.20;99.90
3053;DHT22;1536;51.098;6.414;2022-10-16T01:25:27;16.20;99.90
3053;DHT22;1536;51.098;6.414;2022-10-16T01:27:59;16.20;99.90
3053;DHT22;1536;51.098;6.414;2022-10-16T01:30:30;16.20;99.90
3053;DHT22;1536;51.098;6.414;2022-10-16T01:33:02;16.20;99.90
3053;DHT22;1536;51.098;6.414;2022-10-16T01:35:36;16.20;99.90
3053;DHT22;1536;51.098;6.414;2022-10-16T01:38:06;16.20;99.90
3053;DHT22;1536;51.098;6.414;2022-10-16T01:40:36;16.20;99.90
3053;DHT22;1536;51.098;6.414;2022-10-16T01:43:10;16.20;99.90
3053;DHT22;1536;51.098;6.414;2022-10-16T01:45:41;16.20;99.90
3053;DHT22;1536;51.098;6.414;2022-10-16T01:48:09;16.20;99.90
3053;DHT22;1536;51.098;6.414;2022-10-16T01:50:39;16.20;99.90
3053;DHT22;1536;51.098;6.414;2022-10-16T01:53:11;16.20;99.90
3053;DHT22;1536;51.098;6.414;2022-10-16T01:55:41;16.20;99.90
3053;DHT22;1536;51.098;6.414;2022-10-16T01:58:12;16.20;99.90
3053;DHT22;1536;51.098;6.414;2022-10-16T02:00:43;16.20;99.90
3053;DHT22;1536;51.098;6.414;2022-10-16T02:03:13;16.10;99.90
3053;DHT22;1536;51.098;6.414;2022-10-16T02:05:44;16.10;99.90
3053;DHT22;1536;51.098;6.414;2022-10-16T02:08:11;16.10;99.90
3053;DHT22;1536;51.098;6.414;2022-10-16T02:10:39;16.10;99.90
3053;DHT22;1536;51.098;6.414;2022-10-16T02:13:08;16.10;99.90
3053;DHT22;1536;51.098;6.414;2022-10-16T02:15:37;16.00;99.90
3053;DHT22;1536;51.098;6.414;2022-10-16T02:18:05;16.10;99.90
3053;DHT22;1536;51.098;6.414;2022-10-16T02:20:37;16.00;99.90
3053;DHT22;1536;51.098;6.414;2022-10-16T02:23:07;16.00;99.90
3053;DHT22;1536;51.098;6.414;2022-10-16T02:25:41;16.00;99.90
3053;DHT22;1536;51.098;6.414;2022-10-16T02:28:16;16.00;99.90
3053;DHT22;1536;51.098;6.414;2022-10-16T02:30:47;16.00;99.90
3053;DHT22;1536;51.098;6.414;2022-10-16T02:33:15;16.00;99.90
3053;DHT22;1536;51.098;6.414;2022-10-16T02:35:44;15.90;99.90
3053;DHT22;1536;51.098;6.414;2022-10-16T02:38:12;15.90;99.90
3053;DHT22;1536;51.098;6.414;2022-10-16T02:40:40;15.90;99.90
3053;DHT22;1536;51.098;6.414;2022-10-16T02:43:07;15.90;99.90
3053;DHT22;1536;51.098;6.414;2022-10-16T02:45:34;15.90;99.90
3053;DHT22;1536;51.098;6.414;2022-10-16T02:48:02;15.90;99.90
3053;DHT22;1536;51.098;6.414;2022-10-16T02:50:29;15.90;99.90
3053;DHT22;1536;51.098;6.414;2022-10-16T02:52:56;15.90;99.90
3053;DHT22;1536;51.098;6.414;2022-10-16T02:55:23;15.90;99.90
3053;DHT22;1536;51.098;6.414;2022-10-16T02:57:49;15.90;99.90
3053;DHT22;1536;51.098;6.414;2022-10-16T03:00:17;15.80;99.90
3053;DHT22;1536;51.098;6.414;2022-10-16T03:02:44;15.90;99.90
3053;DHT22;1536;51.098;6.414;2022-10-16T03:05:13;15.80;99.90
3053;DHT22;1536;51.098;6.414;2022-10-16T03:07:40;15.90;99.90
3053;DHT22;1536;51.098;6.414;2022-10-16T03:10:08;15.80;99.90
3053;DHT22;1536;51.098;6.414;2022-10-16T03:12:34;15.80;99.90
3053;DHT22;1536;51.098;6.414;2022-10-16T03:15:01;15.80;99.90
3053;DHT22;1536;51.098;6.414;2022-10-16T03:17:28;15.80;99.90
3053;DHT22;1536;51.098;6.414;2022-10-16T03:19:54;15.80;99.90
3053;DHT22;1536;51.098;6.414;2022-10-16T03:22:22;15.80;99.90
3053;DHT22;1536;51.098;6.414;2022-10-16T03:24:49;15.80;99.90
3053;DHT22;1536;51.098;6.414;2022-10-16T03:27:16;15.80;99.90
3053;DHT22;1536;51.098;6.414;2022-10-16T03:29:43;15.80;99.90
3053;DHT22;1536;51.098;6.414;2022-10-16T03:32:10;15.80;99.90
3053;DHT22;1536;51.098;6.414;2022-10-16T03:34:36;15.80;99.90
3053;DHT22;1536;51.098;6.414;2022-10-16T03:37:03;15.80;99.90
3053;DHT22;1536;51.098;6.414;2022-10-16T03:39:31;15.80;99.90
3053;DHT22;1536;51.098;6.414;2022-10-16T03:41:58;15.80;99.90
3053;DHT22;1536;51.098;6.414;2022-10-16T03:44:25;15.80;99.90
3053;DHT22;1536;51.098;6.414;2022-10-16T03:46:51;15.80;99.90
3053;DHT22;1536;51.098;6.414;2022-10-16T03:49:18;15.70;99.90
3053;DHT22;1536;51.098;6.414;2022-10-16T03:51:45;15.70;99.90
3053;DHT22;1536;51.098;6.414;2022-10-16T03:54:11;15.70;99.90
3053;DHT22;1536;51.098;6.414;2022-10-16T03:56:39;15.70;99.90
3053;DHT22;1536;51.098;6.414;2022-10-16T03:59:06;15.70;99.90
3053;DHT22;1536;51.098;6.414;2022-10-16T04:01:33;15.70;99.90
3053;DHT22;1536;51.098;6.414;2022-10-16T04:04:00;15.70;99.90
3053;DHT22;1536;51.098;6.414;2022-10-16T04:06:26;15.70;99.90
3053;DHT22;1536;51.098;6.414;2022-10-16T04:08:53;15.70;99.90
3053;DHT22;1536;51.098;6.414;2022-10-16T04:11:20;15.60;99.90
3053;DHT22;1536;51.098;6.414;2022-10-16T04:13:48;15.70;99.90
3053;DHT22;1536;51.098;6.414;2022-10-16T04:16:15;15.60;99.90
3053;DHT22;1536;51.098;6.414;2022-10-16T04:18:41;15.60;99.90
3053;DHT22;1536;51.098;6.414;2022-10-16T04:21:08;15.60;99.90
3053;DHT22;1536;51.098;6.414;2022-10-16T04:23:35;15.60;99.90
3053;DHT22;1536;51.098;6.414;2022-10-16T04:26:02;15.60;99.90
3053;DHT22;1536;51.098;6.414;2022-10-16T04:28:28;15.60;99.90
3053;DHT22;1536;51.098;6.414;2022-10-16T04:30:57;15.60;99.90
3053;DHT22;1536;51.098;6.414;2022-10-16T04:33:24;15.60;99.90
3053;DHT22;1536;51.098;6.414;2022-10-16T04:35:56;15.60;99.90
3053;DHT22;1536;51.098;6.414;2022-10-16T04:38:23;15.60;99.90
3053;DHT22;1536;51.098;6.414;2022-10-16T04:40:50;15.50;99.90
3053;DHT22;1536;51.098;6.414;2022-10-16T04:43:17;15.50;99.90
3053;DHT22;1536;51.098;6.414;2022-10-16T04:45:44;15.50;99.90
3053;DHT22;1536;51.098;6.414;2022-10-16T04:48:12;15.50;99.90
3053;DHT22;1536;51.098;6.414;2022-10-16T04:50:38;15.50;99.90
3053;DHT22;1536;51.098;6.414;2022-10-16T04:53:05;15.40;99.90
3053;DHT22;1536;51.098;6.414;2022-10-16T04:55:33;15.50;99.90
3053;DHT22;1536;51.098;6.414;2022-10-16T04:57:59;15.40;99.90
3053;DHT22;1536;51.098;6.414;2022-10-16T05:00:26;15.40;99.90
3053;DHT22;1536;51.098;6.414;2022-10-16T05:02:53;15.40;99.90
3053;DHT22;1536;51.098;6.414;2022-10-16T05:05:21;15.40;99.90
3053;DHT22;1536;51.098;6.414;2022-10-16T05:07:48;15.40;99.90
3053;DHT22;1536;51.098;6.414;2022-10-16T05:10:16;15.40;99.90
3053;DHT22;1536;51.098;6.414;2022-10-16T05:12:43;15.40;99.90
3053;DHT22;1536;51.098;6.414;2022-10-16T05:15:10;15.40;99.90
3053;DHT22;1536;51.098;6.414;2022-10-16T05:17:36;15.40;99.90
3053;DHT22;1536;51.098;6.414;2022-10-16T05:20:04;15.50;99.90
3053;DHT22;1536;51.098;6.414;2022-10-16T05:22:32;15.50;99.90
3053;DHT22;1536;51.098;6.414;2022-10-16T05:24:59;15.40;99.90
3053;DHT22;1536;51.098;6.414;2022-10-16T05:27:25;15.40;99.90
3053;DHT22;1536;51.098;6.414;2022-10-16T05:29:52;15.40;99.90
3053;DHT22;1536;51.098;6.414;2022-10-16T05:32:19;15.40;99.90
3053;DHT22;1536;51.098;6.414;2022-10-16T05:34:46;15.50;99.90
3053;DHT22;1536;51.098;6.414;2022-10-16T05:37:12;15.50;99.90
3053;DHT22;1536;51.098;6.414;2022-10-16T05:39:40;15.40;99.90
3053;DHT22;1536;51.098;6.414;2022-10-16T05:42:07;15.40;99.90
3053;DHT22;1536;51.098;6.414;2022-10-16T05:44:34;15.50;99.90
3053;DHT22;1536;51.098;6.414;2022-10-16T05:47:01;15.40;99.90
3053;DHT22;1536;51.098;6.414;2022-10-16T05:49:27;15.40;99.90
3053;DHT22;1536;51.098;6.414;2022-10-16T05:51:54;15.40;99.90
3053;DHT22;1536;51.098;6.414;2022-10-16T05:54:21;15.50;99.90
3053;DHT22;1536;51.098;6.414;2022-10-16T05:56:49;15.50;99.90
3053;DHT22;1536;51.098;6.414;2022-10-16T05:59:15;15.50;99.90
3053;DHT22;1536;51.098;6.414;2022-10-16T06:01:42;15.40;99.90
3053;DHT22;1536;51.098;6.414;2022-10-16T06:04:09;15.40;99.90
3053;DHT22;1536;51.098;6.414;2022-10-16T06:06:36;15.40;99.90
3053;DHT22;1536;51.098;6.414;2022-10-16T06:09:05;15.40;99.90
3053;DHT22;1536;51.098;6.414;2022-10-16T06:11:33;15.40;99.90
3053;DHT22;1536;51.098;6.414;2022-10-16T06:14:01;15.40;99.90
3053;DHT22;1536;51.098;6.414;2022-10-16T06:16:32;15.40;99.90
3053;DHT22;1536;51.098;6.414;2022-10-16T06:18:59;15.50;99.90
3053;DHT22;1536;51.098;6.414;2022-10-16T06:21:27;15.40;99.90
3053;DHT22;1536;51.098;6.414;2022-10-16T06:23:55;15.50;99.90
3053;DHT22;1536;51.098;6.414;2022-10-16T06:26:24;15.50;99.90
3053;DHT22;1536;51.098;6.414;2022-10-16T06:28:51;15.50;99.90
3053;DHT22;1536;51.098;6.414;2022-10-16T06:31:19;15.50;99.90
3053;DHT22;1536;51.098;6.414;2022-10-16T06:33:50;15.50;99.90
3053;DHT22;1536;51.098;6.414;2022-10-16T06:36:18;15.50;99.90
3053;DHT22;1536;51.098;6.414;2022-10-16T06:38:45;15.50;99.90
3053;DHT22;1536;51.098;6.414;2022-10-16T06:41:14;15.50;99.90
3053;DHT22;1536;51.098;6.414;2022-10-16T06:43:41;15.60;99.90
3053;DHT22;1536;51.098;6.414;2022-10-16T06:46:11;15.60;99.90
3053;DHT22;1536;51.098;6.414;2022-10-16T06:48:39;15.60;99.90
3053;DHT22;1536;51.098;6.414;2022-10-16T06:51:10;15.60;99.90
3053;DHT22;1536;51.098;6.414;2022-10-16T06:53:39;15.60;99.90
3053;DHT22;1536;51.098;6.414;2022-10-16T06:56:07;15.60;99.90
3053;DHT22;1536;51.098;6.414;2022-10-16T06:58:34;15.60;99.90
3053;DHT22;1536;51.098;6.414;2022-10-16T07:01:01;15.60;99.90
3053;DHT22;1536;51.098;6.414;2022-10-16T07:03:28;15.60;99.90
3053;DHT22;1536;51.098;6.414;2022-10-16T07:05:56;15.60;99.90
3053;DHT22;1536;51.098;6.414;2022-10-16T07:08:23;15.60;99.90
3053;DHT22;1536;51.098;6.414;2022-10-16T07:10:58;15.50;99.90
3053;DHT22;1536;51.098;6.414;2022-10-16T07:13:25;15.60;99.90
3053;DHT22;1536;51.098;6.414;2022-10-16T07:15:52;15.60;99.90
3053;DHT22;1536;51.098;6.414;2022-10-16T07:18:19;15.60;99.90
3053;DHT22;1536;51.098;6.414;2022-10-16T07:20:45;15.60;99.90
3053;DHT22;1536;51.098;6.414;2022-10-16T07:23:13;15.60;99.90
3053;DHT22;1536;51.098;6.414;2022-10-16T07:25:40;15.60;99.90
3053;DHT22;1536;51.098;6.414;2022-10-16T07:28:08;15.60;99.90
3053;DHT22;1536;51.098;6.414;2022-10-16T07:30:35;15.60;99.90
3053;DHT22;1536;51.098;6.414;2022-10-16T07:33:03;15.60;99.90
3053;DHT22;1536;51.098;6.414;2022-10-16T07:35:30;15.60;99.90
3053;DHT22;1536;51.098;6.414;2022-10-16T07:37:57;15.70;99.90
3053;DHT22;1536;51.098;6.414;2022-10-16T07:40:25;15.70;99.90
3053;DHT22;1536;51.098;6.414;2022-10-16T07:42:52;15.70;99.90
3053;DHT22;1536;51.098;6.414;2022-10-16T07:45:19;15.70;99.90
3053;DHT22;1536;51.098;6.414;2022-10-16T07:47:45;15.70;99.90
3053;DHT22;1536;51.098;6.414;2022-10-16T07:50:12;15.70;99.90
3053;DHT22;1536;51.098;6.414;2022-10-16T07:52:39;15.80;99.90
3053;DHT22;1536;51.098;6.414;2022-10-16T07:55:06;15.80;99.90
3053;DHT22;1536;51.098;6.414;2022-10-16T07:57:34;15.80;99.90
3053;DHT22;1536;51.098;6.414;2022-10-16T08:00:01;15.80;99.90
3053;DHT22;1536;51.098;6.414;2022-10-16T08:02:28;15.90;99.90
3053;DHT22;1536;51.098;6.414;2022-10-16T08:04:55;15.90;99.90
3053;DHT22;1536;51.098;6.414;2022-10-16T08:07:22;15.90;99.90
3053;DHT22;1536;51.098;6.414;2022-10-16T08:09:49;16.00;99.90
3053;DHT22;1536;51.098;6.414;2022-10-16T08:12:16;16.00;99.90
3053;DHT22;1536;51.098;6.414;2022-10-16T08:14:45;16.00;99.90
3053;DHT22;1536;51.098;6.414;2022-10-16T08:17:13;16.10;99.90
3053;DHT22;1536;51.098;6.414;2022-10-16T08:19:44;16.10;99.90
3053;DHT22;1536;51.098;6.414;2022-10-16T08:22:10;16.10;99.90
3053;DHT22;1536;51.098;6.414;2022-10-16T08:24:37;16.20;99.90
3053;DHT22;1536;51.098;6.414;2022-10-16T08:27:04;16.20;99.90
3053;DHT22;1536;51.098;6.414;2022-10-16T08:29:31;16.20;99.90
3053;DHT22;1536;51.098;6.414;2022-10-16T08:31:59;16.20;99.90
3053;DHT22;1536;51.098;6.414;2022-10-16T08:34:25;16.30;99.90
3053;DHT22;1536;51.098;6.414;2022-10-16T08:36:53;16.30;99.90
3053;DHT22;1536;51.098;6.414;2022-10-16T08:39:19;16.30;99.90
3053;DHT22;1536;51.098;6.414;2022-10-16T08:42:06;16.30;99.90
3053;DHT22;1536;51.098;6.414;2022-10-16T08:47:49;16.40;99.90
3053;DHT22;1536;51.098;6.414;2022-10-16T08:50:22;16.40;99.90
3053;DHT22;1536;51.098;6.414;2022-10-16T08:52:51;16.40;99.90
3053;DHT22;1536;51.098;6.414;2022-10-16T08:55:28;16.40;99.90
3053;DHT22;1536;51.098;6.414;2022-10-16T08:57:57;16.50;99.90
3053;DHT22;1536;51.098;6.414;2022-10-16T09:00:24;16.50;99.90
3053;DHT22;1536;51.098;6.414;2022-10-16T09:03:03;16.50;99.90
3053;DHT22;1536;51.098;6.414;2022-10-16T09:05:52;16.50;99.90
3053;DHT22;1536;51.098;6.414;2022-10-16T09:08:28;16.60;99.90
3053;DHT22;1536;51.098;6.414;2022-10-16T09:10:58;16.60;99.90
3053;DHT22;1536;51.098;6.414;2022-10-16T09:13:29;16.60;99.90
3053;DHT22;1536;51.098;6.414;2022-10-16T09:16:04;16.60;99.90
3053;DHT22;1536;51.098;6.414;2022-10-16T09:18:41;16.70;99.90
3053;DHT22;1536;51.098;6.414;2022-10-16T09:21:15;16.70;99.90
3053;DHT22;1536;51.098;6.414;2022-10-16T09:23:43;16.70;99.90
3053;DHT22;1536;51.098;6.414;2022-10-16T09:26:12;16.70;99.90
3053;DHT22;1536;51.098;6.414;2022-10-16T09:28:40;16.70;99.90
3053;DHT22;1536;51.098;6.414;2022-10-16T09:31:15;16.80;99.90
3053;DHT22;1536;51.098;6.414;2022-10-16T09:33:48;16.80;99.90
3053;DHT22;1536;51.098;6.414;2022-10-16T09:36:17;16.80;99.90
3053;DHT22;1536;51.098;6.414;2022-10-16T09:38:44;16.80;99.90
3053;DHT22;1536;51.098;6.414;2022-10-16T09:41:17;16.90;99.90
3053;DHT22;1536;51.098;6.414;2022-10-16T09:43:49;16.90;99.90
3053;DHT22;1536;51.098;6.414;2022-10-16T09:46:24;16.90;99.90
3053;DHT22;1536;51.098;6.414;2022-10-16T09:48:56;16.90;99.90
3053;DHT22;1536;51.098;6.414;2022-10-16T09:51:25;16.90;99.90
3053;DHT22;1536;51.098;6.414;2022-10-16T09:53:56;16.90;99.90
3053;DHT22;1536;51.098;6.414;2022-10-16T09:56:25;17.00;99.90
3053;DHT22;1536;51.098;6.414;2022-10-16T09:58:53;17.00;99.90
3053;DHT22;1536;51.098;6.414;2022-10-16T10:01:21;17.00;99.90
3053;DHT22;1536;51.098;6.414;2022-10-16T10:03:50;17.00;99.90
3053;DHT22;1536;51.098;6.414;2022-10-16T10:06:22;17.00;99.90
3053;DHT22;1536;51.098;6.414;2022-10-16T10:09:02;17.00;99.90
3053;DHT22;1536;51.098;6.414;2022-10-16T10:14:30;17.10;99.90
3053;DHT22;1536;51.098;6.414;2022-10-16T10:17:14;17.10;99.90
3053;DHT22;1536;51.098;6.414;2022-10-16T10:19:46;17.10;99.90
3053;DHT22;1536;51.098;6.414;2022-10-16T10:22:23;17.10;99.90
3053;DHT22;1536;51.098;6.414;2022-10-16T10:25:14;17.00;99.90
3053;DHT22;1536;51.098;6.414;2022-10-16T10:27:51;17.00;99.90
3053;DHT22;1536;51.098;6.414;2022-10-16T10:30:26;17.10;99.90
3053;DHT22;1536;51.098;6.414;2022-10-16T10:33:07;17.10;99.90
3053;DHT22;1536;51.098;6.414;2022-10-16T10:35:44;17.10;99.90
3053;DHT22;1536;51.098;6.414;2022-10-16T10:38:22;17.10;99.90
3053;DHT22;1536;51.098;6.414;2022-10-16T10:40:57;17.10;99.90
3053;DHT22;1536;51.098;6.414;2022-10-16T10:43:42;17.10;99.90
3053;DHT22;1536;51.098;6.414;2022-10-16T10:46:18;17.20;99.90
3053;DHT22;1536;51.098;6.414;2022-10-16T10:48:58;17.20;99.90
3053;DHT22;1536;51.098;6.414;2022-10-16T10:51:37;17.20;99.90
3053;DHT22;1536;51.098;6.414;2022-10-16T10:54:15;17.20;99.90
3053;DHT22;1536;51.098;6.414;2022-10-16T10:56:49;17.30;99.90
3053;DHT22;1536;51.098;6.414;2022-10-16T11:02:18;17.40;99.90
3053;DHT22;1536;51.098;6.414;2022-10-16T11:08:01;17.50;99.90
3053;DHT22;1536;51.098;6.414;2022-10-16T11:10:34;17.60;99.90
3053;DHT22;1536;51.098;6.414;2022-10-16T11:13:14;17.60;99.90
3053;DHT22;1536;51.098;6.414;2022-10-16T11:15:45;17.70;99.90
3053;DHT22;1536;51.098;6.414;2022-10-16T11:18:18;17.70;99.90
3053;DHT22;1536;51.098;6.414;2022-10-16T11:20:50;17.80;99.90
3053;DHT22;1536;51.098;6.414;2022-10-16T11:23:23;17.80;99.90
3053;DHT22;1536;51.098;6.414;2022-10-16T11:25:54;17.80;99.90
3053;DHT22;1536;51.098;6.414;2022-10-16T11:28:27;17.90;99.90
3053;DHT22;1536;51.098;6.414;2022-10-16T11:30:58;17.90;99.90
3053;DHT22;1536;51.098;6.414;2022-10-16T11:33:30;17.90;99.90
3053;DHT22;1536;51.098;6.414;2022-10-16T11:36:03;17.90;99.90
3053;DHT22;1536;51.098;6.414;2022-10-16T11:38:34;18.00;99.90
3053;DHT22;1536;51.098;6.414;2022-10-16T11:41:15;18.00;99.90
3053;DHT22;1536;51.098;6.414;2022-10-16T11:43:50;18.00;99.90
3053;DHT22;1536;51.098;6.414;2022-10-16T11:46:21;18.00;99.90
3053;DHT22;1536;51.098;6.414;2022-10-16T11:48:55;18.10;99.90
3053;DHT22;1536;51.098;6.414;2022-10-16T11:51:29;18.10;99.90
3053;DHT22;1536;51.098;6.414;2022-10-16T11:54:04;18.10;99.90
3053;DHT22;1536;51.098;6.414;2022-10-16T11:56:38;18.20;99.90
3053;DHT22;1536;51.098;6.414;2022-10-16T11:59:12;18.20;99.90
3053;DHT22;1536;51.098;6.414;2022-10-16T12:01:45;18.30;99.90
3053;DHT22;1536;51.098;6.414;2022-10-16T12:04:19;18.30;99.90
3053;DHT22;1536;51.098;6.414;2022-10-16T12:06:51;18.30;99.90
3053;DHT22;1536;51.098;6.414;2022-10-16T12:09:22;18.30;99.90
3053;DHT22;1536;51.098;6.414;2022-10-16T12:11:52;18.40;99.90
3053;DHT22;1536;51.098;6.414;2022-10-16T12:14:38;18.40;99.90
3053;DHT22;1536;51.098;6.414;2022-10-16T12:17:24;18.40;99.90
3053;DHT22;1536;51.098;6.414;2022-10-16T12:19:58;18.50;99.90
3053;DHT22;1536;51.098;6.414;2022-10-16T12:22:28;18.50;99.90
3053;DHT22;1536;51.098;6.414;2022-10-16T12:24:55;18.60;99.90
3053;DHT22;1536;51.098;6.414;2022-10-16T12:27:25;18.60;99.90
3053;DHT22;1536;51.098;6.414;2022-10-16T12:29:56;18.70;99.90
3053;DHT22;1536;51.098;6.414;2022-10-16T12:32:28;18.70;99.90
3053;DHT22;1536;51.098;6.414;2022-10-16T12:34:56;18.70;99.90
3053;DHT22;1536;51.098;6.414;2022-10-16T12:37:25;18.80;99.90
3053;DHT22;1536;51.098;6.414;2022-10-16T12:39:54;18.90;99.90
3053;DHT22;1536;51.098;6.414;2022-10-16T12:42:34;18.90;99.90
3053;DHT22;1536;51.098;6.414;2022-10-16T12:45:01;19.00;99.90
3053;DHT22;1536;51.098;6.414;2022-10-16T12:47:47;18.90;99.90
3053;DHT22;1536;51.098;6.414;2022-10-16T12:50:29;19.00;99.90
3053;DHT22;1536;51.098;6.414;2022-10-16T12:52:57;19.00;99.90
3053;DHT22;1536;51.098;6.414;2022-10-16T12:55:25;19.00;99.90
3053;DHT22;1536;51.098;6.414;2022-10-16T12:58:09;19.00;99.90
3053;DHT22;1536;51.098;6.414;2022-10-16T13:00:44;19.10;99.90
3053;DHT22;1536;51.098;6.414;2022-10-16T13:06:23;19.30;99.90
3053;DHT22;1536;51.098;6.414;2022-10-16T13:09:04;19.30;99.90
3053;DHT22;1536;51.098;6.414;2022-10-16T13:11:47;19.40;99.90
3053;DHT22;1536;51.098;6.414;2022-10-16T13:17:16;19.40;99.90
3053;DHT22;1536;51.098;6.414;2022-10-16T13:19:48;19.40;99.90
3053;DHT22;1536;51.098;6.414;2022-10-16T13:22:26;19.40;99.90
3053;DHT22;1536;51.098;6.414;2022-10-16T13:25:08;19.50;99.90
3053;DHT22;1536;51.098;6.414;2022-10-16T13:27:44;19.50;99.90
3053;DHT22;1536;51.098;6.414;2022-10-16T13:30:18;19.60;99.90
3053;DHT22;1536;51.098;6.414;2022-10-16T13:32:47;19.60;99.90
3053;DHT22;1536;51.098;6.414;2022-10-16T13:35:26;19.70;99.90
3053;DHT22;1536;51.098;6.414;2022-10-16T13:38:04;19.60;99.90
3053;DHT22;1536;51.098;6.414;2022-10-16T13:40:31;19.70;99.90
3053;DHT22;1536;51.098;6.414;2022-10-16T13:43:00;19.70;99.90
3053;DHT22;1536;51.098;6.414;2022-10-16T13:45:28;19.70;99.90
3053;DHT22;1536;51.098;6.414;2022-10-16T13:48:02;19.70;99.90
3053;DHT22;1536;51.098;6.414;2022-10-16T13:50:29;19.70;99.90
3053;DHT22;1536;51.098;6.414;2022-10-16T13:53:04;19.60;99.90
3053;DHT22;1536;51.098;6.414;2022-10-16T13:55:31;19.60;99.90
3053;DHT22;1536;51.098;6.414;2022-10-16T13:58:05;19.60;99.90
3053;DHT22;1536;51.098;6.414;2022-10-16T14:00:33;19.50;99.90
3053;DHT22;1536;51.098;6.414;2022-10-16T14:03:02;19.50;99.90
3053;DHT22;1536;51.098;6.414;2022-10-16T14:05:30;19.50;99.90
3053;DHT22;1536;51.098;6.414;2022-10-16T14:07:57;19.50;99.90
3053;DHT22;1536;51.098;6.414;2022-10-16T14:10:26;19.50;99.90
3053;DHT22;1536;51.098;6.414;2022-10-16T14:12:55;19.40;99.90
3053;DHT22;1536;51.098;6.414;2022-10-16T14:15:22;19.50;99.90
3053;DHT22;1536;51.098;6.414;2022-10-16T14:17:51;19.50;99.90
3053;DHT22;1536;51.098;6.414;2022-10-16T14:20:21;19.40;99.90
3053;DHT22;1536;51.098;6.414;2022-10-16T14:22:58;19.50;99.90
3053;DHT22;1536;51.098;6.414;2022-10-16T14:25:27;19.50;99.90
3053;DHT22;1536;51.098;6.414;2022-10-16T14:28:00;19.40;99.90
3053;DHT22;1536;51.098;6.414;2022-10-16T14:30:28;19.40;99.90
3053;DHT22;1536;51.098;6.414;2022-10-16T14:32:58;19.30;99.90
3053;DHT22;1536;51.098;6.414;2022-10-16T14:35:28;19.30;99.90
3053;DHT22;1536;51.098;6.414;2022-10-16T14:37:56;19.30;99.90
3053;DHT22;1536;51.098;6.414;2022-10-16T14:40:24;19.30;99.90
3053;DHT22;1536;51.098;6.414;2022-10-16T14:42:51;19.20;99.90
3053;DHT22;1536;51.098;6.414;2022-10-16T14:45:24;19.20;99.90
3053;DHT22;1536;51.098;6.414;2022-10-16T14:47:53;19.20;99.90
3053;DHT22;1536;51.098;6.414;2022-10-16T14:50:22;19.10;99.90
3053;DHT22;1536;51.098;6.414;2022-10-16T14:52:49;19.10;99.90
3053;DHT22;1536;51.098;6.414;2022-10-16T14:55:16;19.10;99.90
3053;DHT22;1536;51.098;6.414;2022-10-16T14:57:43;19.10;99.90
3053;DHT22;1536;51.098;6.414;2022-10-16T15:00:16;19.10;99.90
3053;DHT22;1536;51.098;6.414;2022-10-16T15:02:43;19.00;99.90
3053;DHT22;1536;51.098;6.414;2022-10-16T15:05:16;19.00;99.90
3053;DHT22;1536;51.098;6.414;2022-10-16T15:07:45;19.00;99.90
3053;DHT22;1536;51.098;6.414;2022-10-16T15:10:12;18.90;99.90
3053;DHT22;1536;51.098;6.414;2022-10-16T15:12:39;18.90;99.90
3053;DHT22;1536;51.098;6.414;2022-10-16T15:15:21;18.90;99.90
3053;DHT22;1536;51.098;6.414;2022-10-16T15:17:49;18.80;99.90
3053;DHT22;1536;51.098;6.414;2022-10-16T15:20:18;18.80;99.90
3053;DHT22;1536;51.098;6.414;2022-10-16T15:22:46;18.80;99.90
3053;DHT22;1536;51.098;6.414;2022-10-16T15:25:34;18.80;99.90
3053;DHT22;1536;51.098;6.414;2022-10-16T15:28:02;18.80;99.90
3053;DHT22;1536;51.098;6.414;2022-10-16T15:30:29;18.80;99.90
3053;DHT22;1536;51.098;6.414;2022-10-16T15:32:56;18.70;99.90
3053;DHT22;1536;51.098;6.414;2022-10-16T15:35:23;18.70;99.90
3053;DHT22;1536;51.098;6.414;2022-10-16T15:37:51;18.70;99.90
3053;DHT22;1536;51.098;6.414;2022-10-16T15:40:19;18.70;99.90
3053;DHT22;1536;51.098;6.414;2022-10-16T15:42:46;18.60;99.90
3053;DHT22;1536;51.098;6.414;2022-10-16T15:45:14;18.60;99.90
3053;DHT22;1536;51.098;6.414;2022-10-16T15:47:41;18.60;99.90
3053;DHT22;1536;51.098;6.414;2022-10-16T15:50:09;18.60;99.90
3053;DHT22;1536;51.098;6.414;2022-10-16T15:52:36;18.60;99.90
3053;DHT22;1536;51.098;6.414;2022-10-16T15:55:06;18.60;99.90
3053;DHT22;1536;51.098;6.414;2022-10-16T15:57:33;18.50;99.90
3053;DHT22;1536;51.098;6.414;2022-10-16T16:00:00;18.50;99.90
3053;DHT22;1536;51.098;6.414;2022-10-16T16:02:26;18.50;99.90
3053;DHT22;1536;51.098;6.414;2022-10-16T16:04:53;18.50;99.90
3053;DHT22;1536;51.098;6.414;2022-10-16T16:07:20;18.40;99.90
3053;DHT22;1536;51.098;6.414;2022-10-16T16:09:46;18.40;99.90
3053;DHT22;1536;51.098;6.414;2022-10-16T16:12:14;18.40;99.90
3053;DHT22;1536;51.098;6.414;2022-10-16T16:14:41;18.30;99.90
3053;DHT22;1536;51.098;6.414;2022-10-16T16:17:11;18.40;99.90
3053;DHT22;1536;51.098;6.414;2022-10-16T16:19:38;18.30;99.90
3053;DHT22;1536;51.098;6.414;2022-10-16T16:22:04;18.30;99.90
3053;DHT22;1536;51.098;6.414;2022-10-16T16:24:31;18.30;99.90
3053;DHT22;1536;51.098;6.414;2022-10-16T16:26:58;18.30;99.90
3053;DHT22;1536;51.098;6.414;2022-10-16T16:29:26;18.20;99.90
3053;DHT22;1536;51.098;6.414;2022-10-16T16:31:53;18.20;99.90
3053;DHT22;1536;51.098;6.414;2022-10-16T16:34:23;18.20;99.90
3053;DHT22;1536;51.098;6.414;2022-10-16T16:36:50;18.20;99.90